CYBW/YBW METAR and TAF weather

Enter ICAO airport designator
Station Type Date Time Source
CYBW METAR 2022/08/13 11:00 UTC NOAA

CYBW 131100Z AUTO 08006KT 320V100 9SM FEW210 12/07 A3001 RMK SLP145 DENSITY ALT 4400FT


Station Type Date Time Source
CYBW Decoded METAR 2022/08/13 11:00 UTC NOAA

Calgary / Springbank, Canada (CYBW) 51-06N 114-22W
Aug 13, 2022 - 07:00 AM EDT / 2022.08.13 1100 UTC
Wind: from the E (080 degrees) at 7 MPH (6 KT) (direction variable):0
Visibility: 9 mile(s):0
Sky conditions: mostly clear
Temperature: 53 F (12 C)
Dew Point: 44 F (7 C)
Relative Humidity: 71%
Pressure (altimeter): 30.01 in. Hg (1016 hPa)
ob: CYBW 131100Z AUTO 08006KT 320V100 9SM FEW210 12/07 A3001 RMK SLP145 DENSITY ALT 4400FT
cycle: 11

Station Type Date Time Source
CYBW TAF 2022/08/13 12:42 UTC NOAA

TAF CYBW 131140Z 1312/1324 VRB03KT P6SM SCT220
FM131400 VRB03KT P6SM SCT120
BECMG 1316/1318 24010KT
FM132200 27010G20KT P6SM SCT120
TEMPO 1322/1324 P6SM VCSH BKN120
RMK FCST BASED ON AUTO OBS. NXT FCST BY 131800Z

Example: see airport list